sensor_id;sensor_type;location;lat;lon;timestamp;temperature;humidity
22173;DHT22;11252;50.596;17.648;2022-11-14T00:01:13;2.30;92.20
22173;DHT22;11252;50.596;17.648;2022-11-14T00:03:41;2.20;92.20
22173;DHT22;11252;50.596;17.648;2022-11-14T00:06:08;2.10;92.20
22173;DHT22;11252;50.596;17.648;2022-11-14T00:08:36;2.10;92.20
22173;DHT22;11252;50.596;17.648;2022-11-14T00:11:03;2.00;92.20
22173;DHT22;11252;50.596;17.648;2022-11-14T00:13:31;1.90;92.20
22173;DHT22;11252;50.596;17.648;2022-11-14T00:15:58;1.90;92.20
22173;DHT22;11252;50.596;17.648;2022-11-14T00:18:26;1.80;92.20
22173;DHT22;11252;50.596;17.648;2022-11-14T00:20:54;1.80;92.20
22173;DHT22;11252;50.596;17.648;2022-11-14T00:23:21;1.80;92.20
22173;DHT22;11252;50.596;17.648;2022-11-14T00:25:49;1.70;92.20
22173;DHT22;11252;50.596;17.648;2022-11-14T00:28:16;1.70;92.20
22173;DHT22;11252;50.596;17.648;2022-11-14T00:30:47;1.70;92.20
22173;DHT22;11252;50.596;17.648;2022-11-14T00:33:15;1.70;92.20
22173;DHT22;11252;50.596;17.648;2022-11-14T00:35:53;1.70;92.20
22173;DHT22;11252;50.596;17.648;2022-11-14T00:38:21;1.70;92.20
22173;DHT22;11252;50.596;17.648;2022-11-14T00:40:49;1.70;92.20
22173;DHT22;11252;50.596;17.648;2022-11-14T00:43:16;1.80;92.20
22173;DHT22;11252;50.596;17.648;2022-11-14T00:45:44;1.80;92.20
22173;DHT22;11252;50.596;17.648;2022-11-14T00:48:13;2.00;92.20
22173;DHT22;11252;50.596;17.648;2022-11-14T00:50:41;2.00;92.20
22173;DHT22;11252;50.596;17.648;2022-11-14T00:53:09;2.00;92.20
22173;DHT22;11252;50.596;17.648;2022-11-14T00:55:37;1.90;92.20
22173;DHT22;11252;50.596;17.648;2022-11-14T00:58:05;1.90;92.20
22173;DHT22;11252;50.596;17.648;2022-11-14T01:00:32;1.90;92.20
22173;DHT22;11252;50.596;17.648;2022-11-14T01:02:59;1.90;92.20
22173;DHT22;11252;50.596;17.648;2022-11-14T01:05:27;1.90;92.20
22173;DHT22;11252;50.596;17.648;2022-11-14T01:07:55;1.80;92.20
22173;DHT22;11252;50.596;17.648;2022-11-14T01:10:23;1.80;92.20
22173;DHT22;11252;50.596;17.648;2022-11-14T01:12:51;1.80;92.20
22173;DHT22;11252;50.596;17.648;2022-11-14T01:15:18;1.80;92.20
22173;DHT22;11252;50.596;17.648;2022-11-14T01:17:45;1.80;92.20
22173;DHT22;11252;50.596;17.648;2022-11-14T01:20:13;1.80;92.20
22173;DHT22;11252;50.596;17.648;2022-11-14T01:22:41;1.80;92.20
22173;DHT22;11252;50.596;17.648;2022-11-14T01:25:08;1.80;92.20
22173;DHT22;11252;50.596;17.648;2022-11-14T01:27:35;1.80;92.20
22173;DHT22;11252;50.596;17.648;2022-11-14T01:30:03;1.80;92.20
22173;DHT22;11252;50.596;17.648;2022-11-14T01:32:30;1.90;92.20
22173;DHT22;11252;50.596;17.648;2022-11-14T01:34:58;2.00;92.20
22173;DHT22;11252;50.596;17.648;2022-11-14T01:37:25;2.10;92.20
22173;DHT22;11252;50.596;17.648;2022-11-14T01:39:53;2.10;92.20
22173;DHT22;11252;50.596;17.648;2022-11-14T01:42:20;2.00;92.20
22173;DHT22;11252;50.596;17.648;2022-11-14T01:44:53;2.00;92.20
22173;DHT22;11252;50.596;17.648;2022-11-14T01:47:25;2.00;92.20
22173;DHT22;11252;50.596;17.648;2022-11-14T01:49:56;2.00;92.20
22173;DHT22;11252;50.596;17.648;2022-11-14T01:52:34;2.00;92.20
22173;DHT22;11252;50.596;17.648;2022-11-14T01:55:05;2.00;92.20
22173;DHT22;11252;50.596;17.648;2022-11-14T01:57:39;2.10;92.20
22173;DHT22;11252;50.596;17.648;2022-11-14T02:00:10;2.10;92.20
22173;DHT22;11252;50.596;17.648;2022-11-14T02:02:38;2.20;92.20
22173;DHT22;11252;50.596;17.648;2022-11-14T02:05:10;2.20;92.20
22173;DHT22;11252;50.596;17.648;2022-11-14T02:07:40;2.20;92.20
22173;DHT22;11252;50.596;17.648;2022-11-14T02:10:14;2.10;92.20
22173;DHT22;11252;50.596;17.648;2022-11-14T02:12:43;2.10;92.20
22173;DHT22;11252;50.596;17.648;2022-11-14T02:15:11;2.10;92.20
22173;DHT22;11252;50.596;17.648;2022-11-14T02:17:40;2.10;92.20
22173;DHT22;11252;50.596;17.648;2022-11-14T02:22:41;2.10;92.20
22173;DHT22;11252;50.596;17.648;2022-11-14T02:25:09;2.10;92.20
22173;DHT22;11252;50.596;17.648;2022-11-14T02:27:40;2.10;92.20
22173;DHT22;11252;50.596;17.648;2022-11-14T02:30:14;2.10;92.20
22173;DHT22;11252;50.596;17.648;2022-11-14T02:32:42;2.10;92.20
22173;DHT22;11252;50.596;17.648;2022-11-14T02:35:30;2.00;92.20
22173;DHT22;11252;50.596;17.648;2022-11-14T02:37:57;2.00;92.20
22173;DHT22;11252;50.596;17.648;2022-11-14T02:40:24;2.00;92.20
22173;DHT22;11252;50.596;17.648;2022-11-14T02:42:52;2.00;92.20
22173;DHT22;11252;50.596;17.648;2022-11-14T02:45:19;2.00;92.20
22173;DHT22;11252;50.596;17.648;2022-11-14T02:47:47;2.10;92.20
22173;DHT22;11252;50.596;17.648;2022-11-14T02:50:15;2.10;92.20
22173;DHT22;11252;50.596;17.648;2022-11-14T02:52:43;2.10;92.20
22173;DHT22;11252;50.596;17.648;2022-11-14T02:55:11;2.10;92.20
22173;DHT22;11252;50.596;17.648;2022-11-14T02:57:39;2.10;92.20
22173;DHT22;11252;50.596;17.648;2022-11-14T03:00:06;2.20;92.20
22173;DHT22;11252;50.596;17.648;2022-11-14T03:02:40;2.30;92.20
22173;DHT22;11252;50.596;17.648;2022-11-14T03:05:08;2.40;92.20
22173;DHT22;11252;50.596;17.648;2022-11-14T03:07:36;2.40;92.20
22173;DHT22;11252;50.596;17.648;2022-11-14T03:10:04;2.60;92.20
22173;DHT22;11252;50.596;17.648;2022-11-14T03:12:32;2.70;92.20
22173;DHT22;11252;50.596;17.648;2022-11-14T03:14:59;2.80;92.20
22173;DHT22;11252;50.596;17.648;2022-11-14T03:17:31;2.80;92.20
22173;DHT22;11252;50.596;17.648;2022-11-14T03:19:59;2.80;92.20
22173;DHT22;11252;50.596;17.648;2022-11-14T03:22:27;2.90;92.20
22173;DHT22;11252;50.596;17.648;2022-11-14T03:24:54;2.90;92.20
22173;DHT22;11252;50.596;17.648;2022-11-14T03:27:22;3.00;92.20
22173;DHT22;11252;50.596;17.648;2022-11-14T03:29:49;3.00;92.20
22173;DHT22;11252;50.596;17.648;2022-11-14T03:32:17;3.00;92.20
22173;DHT22;11252;50.596;17.648;2022-11-14T03:34:44;2.90;92.20
22173;DHT22;11252;50.596;17.648;2022-11-14T03:37:12;2.90;92.20
22173;DHT22;11252;50.596;17.648;2022-11-14T03:39:39;2.90;92.20
22173;DHT22;11252;50.596;17.648;2022-11-14T03:42:07;2.90;92.20
22173;DHT22;11252;50.596;17.648;2022-11-14T03:44:35;2.90;92.20
22173;DHT22;11252;50.596;17.648;2022-11-14T03:47:03;2.80;92.20
22173;DHT22;11252;50.596;17.648;2022-11-14T03:49:30;2.80;92.20
22173;DHT22;11252;50.596;17.648;2022-11-14T03:51:57;2.80;92.20
22173;DHT22;11252;50.596;17.648;2022-11-14T03:54:25;2.70;92.20
22173;DHT22;11252;50.596;17.648;2022-11-14T03:56:53;2.60;92.20
22173;DHT22;11252;50.596;17.648;2022-11-14T03:59:21;2.50;92.20
22173;DHT22;11252;50.596;17.648;2022-11-14T04:01:49;2.40;92.20
22173;DHT22;11252;50.596;17.648;2022-11-14T04:04:16;2.40;92.20
22173;DHT22;11252;50.596;17.648;2022-11-14T04:06:44;2.40;92.20
22173;DHT22;11252;50.596;17.648;2022-11-14T04:09:12;2.30;92.20
22173;DHT22;11252;50.596;17.648;2022-11-14T04:11:39;2.30;92.20
22173;DHT22;11252;50.596;17.648;2022-11-14T04:14:06;2.20;92.20
22173;DHT22;11252;50.596;17.648;2022-11-14T04:16:34;2.20;92.20
22173;DHT22;11252;50.596;17.648;2022-11-14T04:19:02;2.10;92.20
22173;DHT22;11252;50.596;17.648;2022-11-14T04:21:29;2.10;92.20
22173;DHT22;11252;50.596;17.648;2022-11-14T04:23:57;2.00;92.20
22173;DHT22;11252;50.596;17.648;2022-11-14T04:26:24;2.00;92.20
22173;DHT22;11252;50.596;17.648;2022-11-14T04:28:52;2.00;92.20
22173;DHT22;11252;50.596;17.648;2022-11-14T04:31:19;2.20;92.20
22173;DHT22;11252;50.596;17.648;2022-11-14T04:33:47;2.20;92.20
22173;DHT22;11252;50.596;17.648;2022-11-14T04:36:14;2.10;92.20
22173;DHT22;11252;50.596;17.648;2022-11-14T04:38:41;2.10;92.20
22173;DHT22;11252;50.596;17.648;2022-11-14T04:41:09;2.00;92.20
22173;DHT22;11252;50.596;17.648;2022-11-14T04:43:39;2.00;92.20
22173;DHT22;11252;50.596;17.648;2022-11-14T04:46:06;1.90;92.20
22173;DHT22;11252;50.596;17.648;2022-11-14T04:48:34;1.80;92.20
22173;DHT22;11252;50.596;17.648;2022-11-14T04:51:02;1.80;92.20
22173;DHT22;11252;50.596;17.648;2022-11-14T04:53:30;1.80;92.20
22173;DHT22;11252;50.596;17.648;2022-11-14T04:55:59;1.80;92.20
22173;DHT22;11252;50.596;17.648;2022-11-14T04:58:26;1.80;92.20
22173;DHT22;11252;50.596;17.648;2022-11-14T05:00:55;1.90;92.20
22173;DHT22;11252;50.596;17.648;2022-11-14T05:03:24;1.90;92.20
22173;DHT22;11252;50.596;17.648;2022-11-14T05:05:51;1.90;92.20
22173;DHT22;11252;50.596;17.648;2022-11-14T05:08:19;1.80;92.20
22173;DHT22;11252;50.596;17.648;2022-11-14T05:10:46;1.80;92.20
22173;DHT22;11252;50.596;17.648;2022-11-14T05:13:14;1.80;92.20
22173;DHT22;11252;50.596;17.648;2022-11-14T05:15:41;1.70;92.20
22173;DHT22;11252;50.596;17.648;2022-11-14T05:18:09;1.70;92.20
22173;DHT22;11252;50.596;17.648;2022-11-14T05:20:36;1.70;92.20
22173;DHT22;11252;50.596;17.648;2022-11-14T05:23:04;1.80;92.20
22173;DHT22;11252;50.596;17.648;2022-11-14T05:25:31;1.80;92.20
22173;DHT22;11252;50.596;17.648;2022-11-14T05:28:00;1.80;92.20
22173;DHT22;11252;50.596;17.648;2022-11-14T05:30:28;1.80;92.20
22173;DHT22;11252;50.596;17.648;2022-11-14T05:32:55;1.80;92.20
22173;DHT22;11252;50.596;17.648;2022-11-14T05:35:23;1.70;92.20
22173;DHT22;11252;50.596;17.648;2022-11-14T05:37:50;1.80;92.20
22173;DHT22;11252;50.596;17.648;2022-11-14T05:40:24;1.80;92.20
22173;DHT22;11252;50.596;17.648;2022-11-14T05:42:54;1.90;92.20
22173;DHT22;11252;50.596;17.648;2022-11-14T05:45:22;2.00;92.20
22173;DHT22;11252;50.596;17.648;2022-11-14T05:47:51;2.00;92.20
22173;DHT22;11252;50.596;17.648;2022-11-14T05:50:20;2.10;92.20
22173;DHT22;11252;50.596;17.648;2022-11-14T05:52:48;2.20;92.20
22173;DHT22;11252;50.596;17.648;2022-11-14T05:55:15;2.30;92.20
22173;DHT22;11252;50.596;17.648;2022-11-14T05:57:50;2.30;92.20
22173;DHT22;11252;50.596;17.648;2022-11-14T06:00:17;2.40;92.20
22173;DHT22;11252;50.596;17.648;2022-11-14T06:02:45;2.60;92.20
22173;DHT22;11252;50.596;17.648;2022-11-14T06:05:12;2.80;92.20
22173;DHT22;11252;50.596;17.648;2022-11-14T06:07:39;2.90;92.20
22173;DHT22;11252;50.596;17.648;2022-11-14T06:10:07;3.00;92.20
22173;DHT22;11252;50.596;17.648;2022-11-14T06:12:34;3.10;92.20
22173;DHT22;11252;50.596;17.648;2022-11-14T06:15:02;3.10;92.20
22173;DHT22;11252;50.596;17.648;2022-11-14T06:17:29;3.20;92.20
22173;DHT22;11252;50.596;17.648;2022-11-14T06:19:56;3.30;92.20
22173;DHT22;11252;50.596;17.648;2022-11-14T06:22:24;3.30;92.20
22173;DHT22;11252;50.596;17.648;2022-11-14T06:24:52;3.30;92.20
22173;DHT22;11252;50.596;17.648;2022-11-14T06:27:19;3.30;92.20
22173;DHT22;11252;50.596;17.648;2022-11-14T06:29:47;3.40;92.20
22173;DHT22;11252;50.596;17.648;2022-11-14T06:32:14;3.50;92.20
22173;DHT22;11252;50.596;17.648;2022-11-14T06:34:42;3.50;92.20
22173;DHT22;11252;50.596;17.648;2022-11-14T06:37:09;3.50;92.20
22173;DHT22;11252;50.596;17.648;2022-11-14T06:39:37;3.60;92.20
22173;DHT22;11252;50.596;17.648;2022-11-14T06:42:05;3.70;92.20
22173;DHT22;11252;50.596;17.648;2022-11-14T06:44:32;3.70;92.20
22173;DHT22;11252;50.596;17.648;2022-11-14T06:47:00;3.60;92.20
22173;DHT22;11252;50.596;17.648;2022-11-14T06:49:27;3.70;92.20
22173;DHT22;11252;50.596;17.648;2022-11-14T06:51:54;3.70;92.20
22173;DHT22;11252;50.596;17.648;2022-11-14T06:54:22;3.70;92.20
22173;DHT22;11252;50.596;17.648;2022-11-14T06:56:49;3.80;92.20
22173;DHT22;11252;50.596;17.648;2022-11-14T06:59:16;3.90;92.20
22173;DHT22;11252;50.596;17.648;2022-11-14T07:01:44;3.90;92.20
22173;DHT22;11252;50.596;17.648;2022-11-14T07:04:11;4.00;92.20
22173;DHT22;11252;50.596;17.648;2022-11-14T07:06:38;4.00;92.20
22173;DHT22;11252;50.596;17.648;2022-11-14T07:09:09;4.10;92.20
22173;DHT22;11252;50.596;17.648;2022-11-14T07:11:37;4.10;92.20
22173;DHT22;11252;50.596;17.648;2022-11-14T07:14:04;4.30;92.20
22173;DHT22;11252;50.596;17.648;2022-11-14T07:16:34;4.30;92.20
22173;DHT22;11252;50.596;17.648;2022-11-14T07:19:03;4.40;92.20
22173;DHT22;11252;50.596;17.648;2022-11-14T07:21:33;4.40;92.20
22173;DHT22;11252;50.596;17.648;2022-11-14T07:24:01;4.40;92.20
22173;DHT22;11252;50.596;17.648;2022-11-14T07:26:28;4.50;92.20
22173;DHT22;11252;50.596;17.648;2022-11-14T07:28:55;4.60;92.20
22173;DHT22;11252;50.596;17.648;2022-11-14T07:31:28;4.70;92.20
22173;DHT22;11252;50.596;17.648;2022-11-14T07:33:56;4.70;92.20
22173;DHT22;11252;50.596;17.648;2022-11-14T07:36:23;4.80;92.20
22173;DHT22;11252;50.596;17.648;2022-11-14T07:38:51;4.90;92.20
22173;DHT22;11252;50.596;17.648;2022-11-14T07:41:18;5.00;92.20
22173;DHT22;11252;50.596;17.648;2022-11-14T07:43:46;5.10;92.20
22173;DHT22;11252;50.596;17.648;2022-11-14T07:46:17;5.10;92.20
22173;DHT22;11252;50.596;17.648;2022-11-14T07:48:44;5.10;92.20
22173;DHT22;11252;50.596;17.648;2022-11-14T07:51:16;5.10;92.20
22173;DHT22;11252;50.596;17.648;2022-11-14T07:53:44;5.20;92.20
22173;DHT22;11252;50.596;17.648;2022-11-14T07:56:12;5.30;92.20
22173;DHT22;11252;50.596;17.648;2022-11-14T07:58:40;5.40;92.20
22173;DHT22;11252;50.596;17.648;2022-11-14T08:01:10;5.40;92.20
22173;DHT22;11252;50.596;17.648;2022-11-14T08:03:38;5.50;92.20
22173;DHT22;11252;50.596;17.648;2022-11-14T08:06:13;5.60;92.20
22173;DHT22;11252;50.596;17.648;2022-11-14T08:08:41;5.70;92.20
22173;DHT22;11252;50.596;17.648;2022-11-14T08:11:10;5.70;92.20
22173;DHT22;11252;50.596;17.648;2022-11-14T08:13:37;5.90;92.20
22173;DHT22;11252;50.596;17.648;2022-11-14T08:16:06;6.00;92.20
22173;DHT22;11252;50.596;17.648;2022-11-14T08:18:39;6.00;92.20
22173;DHT22;11252;50.596;17.648;2022-11-14T08:21:07;6.10;92.20
22173;DHT22;11252;50.596;17.648;2022-11-14T08:23:34;6.10;92.20
22173;DHT22;11252;50.596;17.648;2022-11-14T08:26:01;6.20;92.20
22173;DHT22;11252;50.596;17.648;2022-11-14T08:28:29;6.20;92.20
22173;DHT22;11252;50.596;17.648;2022-11-14T08:30:59;6.10;92.20
22173;DHT22;11252;50.596;17.648;2022-11-14T08:33:29;6.10;92.20
22173;DHT22;11252;50.596;17.648;2022-11-14T08:36:04;6.10;92.20
22173;DHT22;11252;50.596;17.648;2022-11-14T08:38:33;6.20;92.20
22173;DHT22;11252;50.596;17.648;2022-11-14T08:41:02;6.30;92.20
22173;DHT22;11252;50.596;17.648;2022-11-14T08:43:30;6.30;92.20
22173;DHT22;11252;50.596;17.648;2022-11-14T08:45:59;6.50;92.20
22173;DHT22;11252;50.596;17.648;2022-11-14T08:48:28;6.80;92.20
22173;DHT22;11252;50.596;17.648;2022-11-14T08:51:00;7.40;92.20
22173;DHT22;11252;50.596;17.648;2022-11-14T08:53:28;8.00;92.20
22173;DHT22;11252;50.596;17.648;2022-11-14T08:55:57;8.40;92.20
22173;DHT22;11252;50.596;17.648;2022-11-14T08:58:28;8.90;92.20
22173;DHT22;11252;50.596;17.648;2022-11-14T09:01:05;9.10;92.20
22173;DHT22;11252;50.596;17.648;2022-11-14T09:03:33;9.30;92.20
22173;DHT22;11252;50.596;17.648;2022-11-14T09:06:02;9.00;92.20
22173;DHT22;11252;50.596;17.648;2022-11-14T09:08:30;8.90;92.20
22173;DHT22;11252;50.596;17.648;2022-11-14T09:11:02;8.80;92.20
22173;DHT22;11252;50.596;17.648;2022-11-14T09:13:35;9.00;92.20
22173;DHT22;11252;50.596;17.648;2022-11-14T09:16:03;9.50;92.20
22173;DHT22;11252;50.596;17.648;2022-11-14T09:18:30;9.90;92.20
22173;DHT22;11252;50.596;17.648;2022-11-14T09:21:00;10.60;92.20
22173;DHT22;11252;50.596;17.648;2022-11-14T09:23:28;11.20;92.20
22173;DHT22;11252;50.596;17.648;2022-11-14T09:25:56;11.60;92.20
22173;DHT22;11252;50.596;17.648;2022-11-14T09:28:24;12.20;92.20
22173;DHT22;11252;50.596;17.648;2022-11-14T09:30:51;12.60;91.80
22173;DHT22;11252;50.596;17.648;2022-11-14T09:33:19;12.40;92.20
22173;DHT22;11252;50.596;17.648;2022-11-14T09:35:46;12.70;92.20
22173;DHT22;11252;50.596;17.648;2022-11-14T09:38:13;13.10;90.80
22173;DHT22;11252;50.596;17.648;2022-11-14T09:46:38;13.80;87.40
22173;DHT22;11252;50.596;17.648;2022-11-14T09:49:26;14.20;87.30
22173;DHT22;11252;50.596;17.648;2022-11-14T09:52:46;14.50;86.50
22173;DHT22;11252;50.596;17.648;2022-11-14T09:57:44;14.40;85.30
22173;DHT22;11252;50.596;17.648;2022-11-14T10:00:20;14.30;85.70
22173;DHT22;11252;50.596;17.648;2022-11-14T10:08:49;13.90;86.00
22173;DHT22;11252;50.596;17.648;2022-11-14T10:11:22;13.50;87.30
22173;DHT22;11252;50.596;17.648;2022-11-14T10:14:01;13.50;88.10
22173;DHT22;11252;50.596;17.648;2022-11-14T10:16:50;13.70;86.80
22173;DHT22;11252;50.596;17.648;2022-11-14T10:20:26;13.80;86.90
22173;DHT22;11252;50.596;17.648;2022-11-14T10:28:44;13.70;87.30
22173;DHT22;11252;50.596;17.648;2022-11-14T10:31:26;13.10;89.10
22173;DHT22;11252;50.596;17.648;2022-11-14T10:34:05;12.50;90.80
22173;DHT22;11252;50.596;17.648;2022-11-14T10:39:30;11.70;92.20
22173;DHT22;11252;50.596;17.648;2022-11-14T10:42:02;11.70;92.20
22173;DHT22;11252;50.596;17.648;2022-11-14T10:44:39;11.40;92.20
22173;DHT22;11252;50.596;17.648;2022-11-14T10:47:15;11.40;92.20
22173;DHT22;11252;50.596;17.648;2022-11-14T10:49:46;11.40;92.20
22173;DHT22;11252;50.596;17.648;2022-11-14T10:52:19;11.50;92.20
22173;DHT22;11252;50.596;17.648;2022-11-14T10:54:55;11.70;92.20
22173;DHT22;11252;50.596;17.648;2022-11-14T10:57:27;11.70;92.20
22173;DHT22;11252;50.596;17.648;2022-11-14T10:59:54;11.50;92.20
22173;DHT22;11252;50.596;17.648;2022-11-14T11:02:22;11.50;92.20
22173;DHT22;11252;50.596;17.648;2022-11-14T11:04:50;11.50;92.20
22173;DHT22;11252;50.596;17.648;2022-11-14T11:07:23;11.50;92.20
22173;DHT22;11252;50.596;17.648;2022-11-14T11:10:57;11.60;92.20
22173;DHT22;11252;50.596;17.648;2022-11-14T11:13:52;11.60;92.20
22173;DHT22;11252;50.596;17.648;2022-11-14T11:16:25;11.60;92.20
22173;DHT22;11252;50.596;17.648;2022-11-14T11:18:53;11.60;92.20
22173;DHT22;11252;50.596;17.648;2022-11-14T11:21:51;11.60;92.20
22173;DHT22;11252;50.596;17.648;2022-11-14T11:24:33;11.70;92.20
22173;DHT22;11252;50.596;17.648;2022-11-14T11:27:27;11.70;92.20
22173;DHT22;11252;50.596;17.648;2022-11-14T11:30:18;11.80;92.20
22173;DHT22;11252;50.596;17.648;2022-11-14T11:32:45;12.00;92.20
22173;DHT22;11252;50.596;17.648;2022-11-14T11:35:15;12.10;92.20
22173;DHT22;11252;50.596;17.648;2022-11-14T11:40:16;12.10;92.20
22173;DHT22;11252;50.596;17.648;2022-11-14T11:43:01;12.20;92.20
22173;DHT22;11252;50.596;17.648;2022-11-14T11:45:52;12.30;92.20
22173;DHT22;11252;50.596;17.648;2022-11-14T11:48:21;12.40;92.20
22173;DHT22;11252;50.596;17.648;2022-11-14T11:50:49;12.50;92.20
22173;DHT22;11252;50.596;17.648;2022-11-14T11:53:21;12.70;92.20
22173;DHT22;11252;50.596;17.648;2022-11-14T11:55:53;12.80;92.20
22173;DHT22;11252;50.596;17.648;2022-11-14T12:00:56;13.20;91.30
22173;DHT22;11252;50.596;17.648;2022-11-14T12:03:24;13.40;90.30
22173;DHT22;11252;50.596;17.648;2022-11-14T12:06:14;13.40;90.20
22173;DHT22;11252;50.596;17.648;2022-11-14T12:11:37;13.70;89.80
22173;DHT22;11252;50.596;17.648;2022-11-14T12:22:56;15.70;85.20
22173;DHT22;11252;50.596;17.648;2022-11-14T12:25:59;16.40;82.40
22173;DHT22;11252;50.596;17.648;2022-11-14T12:29:01;16.10;82.00
22173;DHT22;11252;50.596;17.648;2022-11-14T12:31:32;15.30;84.90
22173;DHT22;11252;50.596;17.648;2022-11-14T12:34:26;15.20;85.50
22173;DHT22;11252;50.596;17.648;2022-11-14T12:36:55;15.60;83.90
22173;DHT22;11252;50.596;17.648;2022-11-14T12:39:27;15.20;84.50
22173;DHT22;11252;50.596;17.648;2022-11-14T12:42:04;15.50;84.00
22173;DHT22;11252;50.596;17.648;2022-11-14T12:44:38;15.50;83.90
22173;DHT22;11252;50.596;17.648;2022-11-14T12:58:09;17.40;79.60
22173;DHT22;11252;50.596;17.648;2022-11-14T13:00:56;17.80;78.80
22173;DHT22;11252;50.596;17.648;2022-11-14T13:06:12;18.20;77.30
22173;DHT22;11252;50.596;17.648;2022-11-14T13:14:20;18.00;78.10
22173;DHT22;11252;50.596;17.648;2022-11-14T13:20:24;17.80;77.30
22173;DHT22;11252;50.596;17.648;2022-11-14T13:33:49;18.50;75.60
22173;DHT22;11252;50.596;17.648;2022-11-14T13:50:32;16.50;79.50
22173;DHT22;11252;50.596;17.648;2022-11-14T13:53:02;16.10;80.60
22173;DHT22;11252;50.596;17.648;2022-11-14T13:55:52;15.50;81.30
22173;DHT22;11252;50.596;17.648;2022-11-14T14:01:32;15.00;83.40
22173;DHT22;11252;50.596;17.648;2022-11-14T14:04:19;14.80;83.70
22173;DHT22;11252;50.596;17.648;2022-11-14T14:06:53;14.40;84.80
22173;DHT22;11252;50.596;17.648;2022-11-14T14:15:32;13.10;87.90
22173;DHT22;11252;50.596;17.648;2022-11-14T14:18:10;12.80;88.80
22173;DHT22;11252;50.596;17.648;2022-11-14T14:26:27;12.40;90.00
22173;DHT22;11252;50.596;17.648;2022-11-14T14:29:19;12.20;90.70
22173;DHT22;11252;50.596;17.648;2022-11-14T14:31:49;12.10;91.00
22173;DHT22;11252;50.596;17.648;2022-11-14T14:34:30;12.00;91.50
22173;DHT22;11252;50.596;17.648;2022-11-14T14:36:58;11.90;91.80
22173;DHT22;11252;50.596;17.648;2022-11-14T14:39:27;11.80;91.80
22173;DHT22;11252;50.596;17.648;2022-11-14T14:41:57;11.70;92.20
22173;DHT22;11252;50.596;17.648;2022-11-14T14:44:37;11.60;92.20
22173;DHT22;11252;50.596;17.648;2022-11-14T14:47:16;11.50;92.20
22173;DHT22;11252;50.596;17.648;2022-11-14T14:49:43;11.40;92.20
22173;DHT22;11252;50.596;17.648;2022-11-14T14:52:21;11.30;92.20
22173;DHT22;11252;50.596;17.648;2022-11-14T14:54:55;11.20;92.20
22173;DHT22;11252;50.596;17.648;2022-11-14T14:57:23;11.10;92.20
22173;DHT22;11252;50.596;17.648;2022-11-14T15:00:22;11.10;92.20
22173;DHT22;11252;50.596;17.648;2022-11-14T15:02:54;11.10;92.20
22173;DHT22;11252;50.596;17.648;2022-11-14T15:05:27;11.00;92.20
22173;DHT22;11252;50.596;17.648;2022-11-14T15:07:58;10.90;92.20
22173;DHT22;11252;50.596;17.648;2022-11-14T15:10:28;10.90;92.20
22173;DHT22;11252;50.596;17.648;2022-11-14T15:12:58;10.70;92.20
22173;DHT22;11252;50.596;17.648;2022-11-14T15:15:26;10.70;92.20
22173;DHT22;11252;50.596;17.648;2022-11-14T15:17:55;10.60;92.20
22173;DHT22;11252;50.596;17.648;2022-11-14T15:20:27;10.60;92.20
22173;DHT22;11252;50.596;17.648;2022-11-14T15:23:17;10.60;92.20
22173;DHT22;11252;50.596;17.648;2022-11-14T15:25:46;10.50;92.20
22173;DHT22;11252;50.596;17.648;2022-11-14T15:28:18;10.40;92.20
22173;DHT22;11252;50.596;17.648;2022-11-14T15:31:01;10.30;92.20
22173;DHT22;11252;50.596;17.648;2022-11-14T15:33:34;10.40;92.20
22173;DHT22;11252;50.596;17.648;2022-11-14T15:36:10;10.20;92.20
22173;DHT22;11252;50.596;17.648;2022-11-14T15:38:39;10.20;92.20
22173;DHT22;11252;50.596;17.648;2022-11-14T15:41:21;10.20;92.20
22173;DHT22;11252;50.596;17.648;2022-11-14T15:43:53;10.10;92.20
22173;DHT22;11252;50.596;17.648;2022-11-14T15:46:42;10.00;92.20
22173;DHT22;11252;50.596;17.648;2022-11-14T15:49:22;10.00;92.20
22173;DHT22;11252;50.596;17.648;2022-11-14T15:54:28;9.80;92.20
22173;DHT22;11252;50.596;17.648;2022-11-14T15:57:13;9.80;92.20
22173;DHT22;11252;50.596;17.648;2022-11-14T15:59:42;9.70;92.20
22173;DHT22;11252;50.596;17.648;2022-11-14T16:04:40;9.60;92.20
22173;DHT22;11252;50.596;17.648;2022-11-14T16:07:15;9.60;92.20
22173;DHT22;11252;50.596;17.648;2022-11-14T16:09:43;9.50;92.20
22173;DHT22;11252;50.596;17.648;2022-11-14T16:12:11;9.50;92.20
22173;DHT22;11252;50.596;17.648;2022-11-14T16:14:39;9.50;92.20
22173;DHT22;11252;50.596;17.648;2022-11-14T16:17:15;9.40;92.20
22173;DHT22;11252;50.596;17.648;2022-11-14T16:19:43;9.40;92.20
22173;DHT22;11252;50.596;17.648;2022-11-14T16:22:12;9.40;92.20
22173;DHT22;11252;50.596;17.648;2022-11-14T16:24:44;9.40;92.20
22173;DHT22;11252;50.596;17.648;2022-11-14T16:27:12;9.40;92.20
22173;DHT22;11252;50.596;17.648;2022-11-14T16:29:40;9.30;92.20
22173;DHT22;11252;50.596;17.648;2022-11-14T16:32:11;9.30;92.20
22173;DHT22;11252;50.596;17.648;2022-11-14T16:34:39;9.20;92.20
22173;DHT22;11252;50.596;17.648;2022-11-14T16:37:13;9.20;92.20
22173;DHT22;11252;50.596;17.648;2022-11-14T16:39:43;9.20;92.20
22173;DHT22;11252;50.596;17.648;2022-11-14T16:42:11;9.10;92.20
22173;DHT22;11252;50.596;17.648;2022-11-14T16:44:39;9.10;92.20
22173;DHT22;11252;50.596;17.648;2022-11-14T16:47:13;9.00;92.20
22173;DHT22;11252;50.596;17.648;2022-11-14T16:49:41;8.90;92.20
22173;DHT22;11252;50.596;17.648;2022-11-14T16:52:09;8.80;92.20
22173;DHT22;11252;50.596;17.648;2022-11-14T16:54:37;8.80;92.20
22173;DHT22;11252;50.596;17.648;2022-11-14T16:57:04;8.80;92.20
22173;DHT22;11252;50.596;17.648;2022-11-14T16:59:31;8.70;92.20
22173;DHT22;11252;50.596;17.648;2022-11-14T17:01:59;8.60;92.20
22173;DHT22;11252;50.596;17.648;2022-11-14T17:04:27;8.60;92.20
22173;DHT22;11252;50.596;17.648;2022-11-14T17:06:54;8.70;92.20
22173;DHT22;11252;50.596;17.648;2022-11-14T17:09:22;8.70;92.20
22173;DHT22;11252;50.596;17.648;2022-11-14T17:11:49;8.60;92.20
22173;DHT22;11252;50.596;17.648;2022-11-14T17:14:17;8.50;92.20
22173;DHT22;11252;50.596;17.648;2022-11-14T17:16:45;8.50;92.20
22173;DHT22;11252;50.596;17.648;2022-11-14T17:19:13;8.50;92.20
22173;DHT22;11252;50.596;17.648;2022-11-14T17:21:41;8.40;92.20
22173;DHT22;11252;50.596;17.648;2022-11-14T17:24:09;8.30;92.20
22173;DHT22;11252;50.596;17.648;2022-11-14T17:26:37;8.20;92.20
22173;DHT22;11252;50.596;17.648;2022-11-14T17:29:04;8.20;92.20
22173;DHT22;11252;50.596;17.648;2022-11-14T17:31:33;8.20;92.20
22173;DHT22;11252;50.596;17.648;2022-11-14T17:34:07;8.20;92.20
22173;DHT22;11252;50.596;17.648;2022-11-14T17:36:37;8.20;92.20
22173;DHT22;11252;50.596;17.648;2022-11-14T17:39:06;8.20;92.20
22173;DHT22;11252;50.596;17.648;2022-11-14T17:41:35;8.10;92.20